Current Weather Conditions: station NFBF1

sailwx.info

Air temperature 24.6° C

Last reported at 2015-Feb-27 17:54 UTC.
Time now 2015-Feb-28 00:43 UTC

Location: N 25°05' W 081°05'.
View on Google Maps.

See reports from other nearby stations

  
Tides and Currents Weather Stations Pressure Air Temp Water Temp Dewpoint Dewpoint Depression Visibility Wind Speed Wind Dir Waves Ship Positions
date/time (UTC)wind fromknots sea level pressurealtimeterstation pressurevisibilityair tempwater tempwave heightnotes
2015-Feb-27 17:54 24.6
2015-Feb-27 17:48 24.8
2015-Feb-27 17:42 080 2 gusting 2 24.6
2015-Feb-27 17:36 060 2 gusting 3 24.8
2015-Feb-27 17:30 060 3 gusting 3 24.6
2015-Feb-27 17:24 050 3 gusting 4 24.5
2015-Feb-27 17:18 050 3 gusting 4 24.3
2015-Feb-27 17:12 070 4 gusting 5 24.0
2015-Feb-27 17:06 070 4 gusting 5 23.9
2015-Feb-27 17:00 070 4 gusting 6 23.8
2015-Feb-27 16:54 060 5 gusting 6 23.6
2015-Feb-27 16:48 060 6 gusting 7 23.4
2015-Feb-27 15:54 060 9 gusting 11 22.0
2015-Feb-27 15:48 060 10 gusting 11 21.8
2015-Feb-27 13:54 040 11 gusting 13 19.4
2015-Feb-27 13:48 040 11 gusting 13 19.3
2015-Feb-27 07:54 050 13 gusting 15 21.2
2015-Feb-27 07:48 040 12 gusting 14 21.5
2015-Feb-27 06:54 340 8 gusting 9 21.1
2015-Feb-27 06:48 330 8 gusting 10 21.0
2015-Feb-27 05:54 23.3
2015-Feb-27 05:48 070 2 gusting 2 23.4
2015-Feb-27 05:42 070 2 gusting 3 23.4
2015-Feb-27 05:36 070 2 gusting 3 23.4
2015-Feb-27 05:30 070 3 gusting 3 23.4
2015-Feb-27 05:24 070 3 gusting 3 23.4
2015-Feb-27 05:18 070 3 gusting 3 23.4
2015-Feb-27 05:12 070 3 gusting 3 23.3
2015-Feb-27 05:06 070 3 gusting 3 23.2
2015-Feb-27 05:00 070 2 gusting 3 23.2
2015-Feb-26 14:54 190 11 gusting 13 22.5
2015-Feb-26 14:48 190 12 gusting 14 22.5
2015-Feb-26 10:54 180 6 gusting 7 21.9
2015-Feb-26 10:48 190 6 gusting 6 21.9
2015-Feb-26 09:54 210 7 gusting 8 22.2
2015-Feb-26 09:48 210 7 gusting 8 22.2
2015-Feb-26 09:42 210 8 gusting 9 22.2
2015-Feb-26 09:36 210 8 gusting 9 22.1
2015-Feb-26 09:30 200 8 gusting 10 22.0
2015-Feb-26 09:24 200 8 gusting 8 22.0
2015-Feb-26 09:18 210 8 gusting 9 22.1
2015-Feb-26 09:12 210 8 gusting 9 22.0
2015-Feb-26 09:06 210 7 gusting 8 22.0
2015-Feb-26 09:00 200 7 gusting 7 22.0
2015-Feb-26 07:54 200 8 gusting 10 22.1
2015-Feb-26 07:48 200 7 gusting 8 22.0
2015-Feb-26 04:54 170 10 gusting 11 22.4
2015-Feb-26 04:48 170 9 gusting 11 22.4
2015-Feb-26 02:54 160 10 gusting 11 22.3
2015-Feb-26 02:48 160 10 gusting 12 22.3
2015-Feb-26 02:42 150 10 gusting 12 22.2
2015-Feb-26 02:36 150 9 gusting 11 22.2
2015-Feb-26 02:30 150 8 gusting 10 22.2
2015-Feb-26 02:24 150 8 gusting 10 22.3
2015-Feb-26 02:18 140 7 gusting 9 22.2
2015-Feb-26 02:12 150 8 gusting 9 22.2
2015-Feb-26 02:06 150 8 gusting 10 22.2
2015-Feb-26 02:00 150 8 gusting 9 22.1